Time;durP1;ratioP1;P1;durP2;ratioP2;P2;SDS_P1;SDS_P2;PMS_P1;PMS_P2;Temp;Humidity;BMP_temperature;BMP_pressure;BME280_temperature;BME280_humidity;BME280_pressure;Samples;Min_cycle;Max_cycle;Signal;HPM_P1;HPM_P2
2024/03/01 00:00:32;;;;;;;22.92;16.33;;;4.50;99.90;;;;;;5009895;28;20206;-74
2024/03/01 00:02:59;;;;;;;26.65;16.35;;;4.40;99.90;;;;;;5038074;28;20186;-74
2024/03/01 00:05:27;;;;;;;26.90;17.65;;;4.40;99.90;;;;;;5029092;28;20188;-74
2024/03/01 00:07:54;;;;;;;26.90;16.15;;;4.50;99.90;;;;;;5034675;28;20378;-74
2024/03/01 00:10:22;;;;;;;24.08;16.33;;;4.50;99.90;;;;;;5031457;28;20547;-74
2024/03/01 00:12:49;;;;;;;31.17;19.88;;;4.40;99.90;;;;;;5036721;28;20200;-74
2024/03/01 00:15:17;;;;;;;29.30;16.92;;;4.60;99.90;;;;;;5020253;28;20220;-74
2024/03/01 00:17:44;;;;;;;29.15;17.08;;;4.60;99.90;;;;;;5008750;28;20217;-74
2024/03/01 00:20:12;;;;;;;23.38;17.73;;;4.70;99.90;;;;;;5022667;28;20201;-74
2024/03/01 00:22:39;;;;;;;29.25;19.45;;;4.70;99.90;;;;;;5023552;28;20191;-74
2024/03/01 00:25:08;;;;;;;22.88;16.30;;;4.80;99.90;;;;;;5019796;28;20713;-74
2024/03/01 00:27:35;;;;;;;32.05;18.20;;;4.50;99.90;;;;;;5021135;28;20606;-74
2024/03/01 00:30:02;;;;;;;25.27;17.20;;;4.60;99.90;;;;;;5028540;28;20211;-74
2024/03/01 00:32:32;;;;;;;27.80;17.77;;;4.40;99.90;;;;;;5040553;28;20859;-74
2024/03/01 00:34:59;;;;;;;27.60;18.48;;;4.50;99.90;;;;;;5029682;28;20229;-74
2024/03/01 00:37:25;;;;;;;23.38;17.30;;;4.60;99.90;;;;;;5031219;28;20196;-74
2024/03/01 00:39:52;;;;;;;31.67;17.83;;;5.00;99.90;;;;;;5041013;28;20276;-74
2024/03/01 00:42:19;;;;;;;23.55;18.58;;;4.60;99.90;;;;;;5027170;28;20189;-74
2024/03/01 00:44:46;;;;;;;30.70;17.23;;;4.60;99.90;;;;;;5030603;28;20207;-74
2024/03/01 00:47:12;;;;;;;27.50;19.58;;;4.60;99.90;;;;;;5035113;28;20202;-74
2024/03/01 00:49:40;;;;;;;27.55;18.70;;;4.50;99.90;;;;;;5026658;28;20235;-74
2024/03/01 00:52:08;;;;;;;26.13;17.63;;;4.50;99.90;;;;;;5026754;28;20200;-74
2024/03/01 00:54:35;;;;;;;27.38;15.25;;;4.60;99.90;;;;;;5009435;28;20216;-74
2024/03/01 00:57:02;;;;;;;32.53;19.55;;;4.70;99.90;;;;;;5020906;28;20206;-74
2024/03/01 00:59:29;;;;;;;29.88;18.75;;;4.80;99.90;;;;;;5022261;28;20202;-74
2024/03/01 01:01:55;;;;;;;26.83;17.40;;;4.70;99.90;;;;;;5021997;28;20197;-74
2024/03/01 01:04:22;;;;;;;29.20;17.02;;;4.70;99.90;;;;;;5029023;28;20285;-74
2024/03/01 01:06:51;;;;;;;32.20;20.08;;;4.70;99.90;;;;;;5028053;28;20203;-74
2024/03/01 01:09:18;;;;;;;34.60;18.90;;;4.70;99.90;;;;;;5029631;28;20298;-74
2024/03/01 01:11:44;;;;;;;33.72;20.98;;;4.70;99.90;;;;;;5025067;28;20197;-74
2024/03/01 01:14:11;;;;;;;33.88;18.80;;;4.70;99.90;;;;;;5011728;28;20264;-74
2024/03/01 01:16:38;;;;;;;30.23;19.48;;;4.70;99.90;;;;;;5016148;28;20231;-74
2024/03/01 01:19:05;;;;;;;31.25;18.55;;;4.70;99.90;;;;;;5034717;28;20197;-74
2024/03/01 01:21:32;;;;;;;26.63;18.35;;;4.70;99.90;;;;;;5018291;28;20204;-74
2024/03/01 01:24:01;;;;;;;28.60;18.95;;;4.70;99.90;;;;;;5025108;28;20986;-74
2024/03/01 01:26:28;;;;;;;28.42;18.75;;;4.80;99.90;;;;;;5029149;28;20207;-74
2024/03/01 01:28:55;;;;;;;30.42;19.88;;;4.80;99.90;;;;;;5034549;28;20208;-74
2024/03/01 01:31:22;;;;;;;30.42;18.65;;;4.80;99.90;;;;;;5027751;28;20192;-74
2024/03/01 01:33:49;;;;;;;31.33;19.60;;;4.90;99.90;;;;;;5027807;28;20201;-74
2024/03/01 01:36:16;;;;;;;31.15;19.20;;;4.90;99.90;;;;;;5029865;28;20243;-74
2024/03/01 01:38:43;;;;;;;32.83;19.95;;;4.90;99.90;;;;;;5032627;28;20584;-74
2024/03/01 01:41:11;;;;;;;32.65;19.73;;;4.90;99.90;;;;;;5025862;28;20281;-74
2024/03/01 01:43:42;;;;;;;32.70;20.58;;;4.90;99.90;;;;;;5018699;28;20656;-74
2024/03/01 01:46:09;;;;;;;26.75;18.75;;;4.90;99.90;;;;;;5028251;28;20201;-74
2024/03/01 01:48:36;;;;;;;38.97;19.98;;;4.80;99.90;;;;;;5040557;28;20292;-74
2024/03/01 01:51:04;;;;;;;33.58;19.27;;;4.90;99.90;;;;;;5016931;28;20225;-74
2024/03/01 01:53:32;;;;;;;30.88;18.20;;;4.90;99.90;;;;;;5042274;27;20205;-74
2024/03/01 01:56:00;;;;;;;28.40;18.02;;;4.90;99.90;;;;;;5021927;28;20613;-74
2024/03/01 01:58:29;;;;;;;28.58;18.00;;;4.80;99.90;;;;;;5030145;28;20249;-74
2024/03/01 02:00:57;;;;;;;34.08;21.25;;;4.80;99.90;;;;;;5031985;28;20264;-74
2024/03/01 02:03:27;;;;;;;31.90;20.50;;;5.00;99.90;;;;;;5024387;28;20266;-74
2024/03/01 02:05:54;;;;;;;28.92;19.27;;;4.80;99.90;;;;;;5025068;28;20615;-74
2024/03/01 02:08:21;;;;;;;33.72;20.35;;;4.80;99.90;;;;;;5026998;28;20265;-74
2024/03/01 02:10:48;;;;;;;30.70;19.10;;;4.70;99.90;;;;;;5021868;28;20697;-74
2024/03/01 02:13:18;;;;;;;29.63;18.65;;;4.70;99.90;;;;;;5019891;28;20216;-74
2024/03/01 02:15:46;;;;;;;30.85;17.30;;;4.70;99.90;;;;;;5017209;28;20307;-74
2024/03/01 02:18:13;;;;;;;29.50;16.77;;;4.80;99.90;;;;;;5040023;28;20196;-74
2024/03/01 02:20:48;;;;;;;39.67;22.05;;;4.80;99.90;;;;;;5038701;27;20240;-74
2024/03/01 02:23:18;;;;;;;30.40;18.70;;;4.90;99.90;;;;;;5024237;28;20201;-74
2024/03/01 02:25:45;;;;;;;28.52;19.00;;;4.90;99.90;;;;;;5028213;28;20237;-74
2024/03/01 02:28:12;;;;;;;29.60;17.83;;;4.80;99.90;;;;;;5007769;28;20201;-74
2024/03/01 02:30:39;;;;;;;34.97;18.60;;;4.80;99.90;;;;;;5024630;28;20553;-74
2024/03/01 02:33:07;;;;;;;27.63;19.23;;;4.70;99.90;;;;;;5036451;28;20281;-74
2024/03/01 02:35:34;;;;;;;28.45;19.27;;;4.70;99.90;;;;;;5033870;28;20216;-74
2024/03/01 02:38:02;;;;;;;28.67;17.90;;;4.70;99.90;;;;;;5029059;28;20192;-74
2024/03/01 02:40:31;;;;;;;37.30;19.40;;;4.90;99.90;;;;;;5009259;28;20251;-74
2024/03/01 02:42:59;;;;;;;28.00;16.98;;;4.80;99.90;;;;;;5016686;28;20197;-74
2024/03/01 02:45:27;;;;;;;32.63;20.10;;;4.80;99.90;;;;;;5027752;28;20643;-74
2024/03/01 02:47:55;;;;;;;29.65;19.02;;;4.90;99.90;;;;;;5031990;28;20204;-74
2024/03/01 02:50:22;;;;;;;33.60;18.52;;;4.90;99.90;;;;;;5059071;27;20598;-74
2024/03/01 02:52:49;;;;;;;29.58;19.52;;;4.90;99.90;;;;;;5086887;27;20230;-74
2024/03/01 02:55:20;;;;;;;29.30;19.05;;;4.90;99.90;;;;;;5047385;28;20696;-74
2024/03/01 02:57:48;;;;;;;29.92;16.73;;;4.90;99.90;;;;;;5061112;27;20316;-74
2024/03/01 03:00:16;;;;;;;27.65;18.15;;;4.80;99.90;;;;;;5029955;28;20196;-74
2024/03/01 03:02:43;;;;;;;28.85;19.05;;;4.90;99.90;;;;;;5025369;28;20284;-74
2024/03/01 03:05:10;;;;;;;26.13;18.50;;;4.90;99.90;;;;;;5014642;28;20643;-74
2024/03/01 03:07:37;;;;;;;31.65;20.55;;;4.90;99.90;;;;;;5015813;28;20197;-74
2024/03/01 03:10:06;;;;;;;25.95;18.80;;;5.00;99.90;;;;;;5021695;28;20296;-74
2024/03/01 03:12:34;;;;;;;25.33;18.30;;;4.90;99.90;;;;;;5023517;28;20659;-74
2024/03/01 03:15:08;;;;;;;34.20;19.20;;;5.00;99.90;;;;;;5027000;28;20225;-74
2024/03/01 03:17:36;;;;;;;24.33;19.33;;;5.10;99.90;;;;;;5020996;28;20216;-74
2024/03/01 03:20:09;;;;;;;31.48;19.52;;;5.10;99.90;;;;;;5019227;28;20200;-74
2024/03/01 03:22:39;;;;;;;30.48;18.77;;;5.10;99.90;;;;;;5027968;28;20204;-74
2024/03/01 03:25:08;;;;;;;30.25;18.25;;;5.10;99.90;;;;;;5021192;28;20682;-74
2024/03/01 03:27:36;;;;;;;28.88;19.23;;;5.10;99.90;;;;;;5022086;28;20316;-74
2024/03/01 03:30:09;;;;;;;26.05;17.98;;;5.10;99.90;;;;;;5033598;28;20636;-74
2024/03/01 03:32:37;;;;;;;28.75;19.38;;;5.20;99.90;;;;;;5034573;28;20247;-74
2024/03/01 03:35:06;;;;;;;33.83;21.35;;;5.10;99.90;;;;;;5010852;28;20673;-74
2024/03/01 03:37:34;;;;;;;31.73;19.25;;;5.10;99.90;;;;;;5020892;28;20587;-74
2024/03/01 03:40:13;;;;;;;32.72;18.38;;;5.10;99.90;;;;;;5031802;28;20550;-74
2024/03/01 03:42:40;;;;;;;29.63;19.75;;;5.10;99.90;;;;;;5030307;28;20185;-74
2024/03/01 03:45:10;;;;;;;33.80;22.85;;;5.10;99.90;;;;;;5020593;28;21092;-74
2024/03/01 03:47:38;;;;;;;30.55;19.95;;;5.10;99.90;;;;;;5022529;28;20207;-74
2024/03/01 03:50:07;;;;;;;32.90;21.33;;;5.10;99.90;;;;;;5016964;28;20662;-74
2024/03/01 03:52:35;;;;;;;24.27;16.80;;;5.10;99.90;;;;;;5056906;27;20600;-74
2024/03/01 03:55:05;;;;;;;35.85;22.80;;;5.20;99.90;;;;;;5078983;27;20231;-74
2024/03/01 03:57:33;;;;;;;27.48;19.50;;;5.10;99.90;;;;;;5060782;27;20270;-74
2024/03/01 04:00:01;;;;;;;30.33;18.80;;;5.20;99.90;;;;;;5028579;28;20200;-74
2024/03/01 04:02:29;;;;;;;29.38;18.30;;;5.20;99.90;;;;;;5030623;28;20600;-74
2024/03/01 04:04:56;;;;;;;31.10;20.67;;;5.30;99.90;;;;;;5018308;28;20284;-74
2024/03/01 04:07:23;;;;;;;32.60;19.65;;;5.30;99.90;;;;;;5042065;28;20199;-74
2024/03/01 04:09:51;;;;;;;31.25;19.33;;;5.30;99.90;;;;;;5032127;28;20656;-74
2024/03/01 04:12:17;;;;;;;31.75;18.75;;;5.40;99.90;;;;;;5028725;28;20653;-74
2024/03/01 04:14:44;;;;;;;37.85;19.50;;;5.30;99.90;;;;;;5033638;28;20686;-74
2024/03/01 04:17:11;;;;;;;27.92;17.98;;;5.30;99.90;;;;;;5026021;28;20189;-74
2024/03/01 04:19:40;;;;;;;33.08;19.85;;;5.30;99.90;;;;;;5017859;28;20189;-74
2024/03/01 04:22:08;;;;;;;36.63;20.40;;;5.40;99.90;;;;;;5032826;28;20220;-74
2024/03/01 04:24:35;;;;;;;30.50;20.08;;;5.30;99.90;;;;;;5026216;28;20548;-74
2024/03/01 04:27:02;;;;;;;33.08;20.25;;;5.30;99.90;;;;;;5020327;28;20229;-74
2024/03/01 04:29:29;;;;;;;33.95;21.55;;;5.30;99.90;;;;;;5014646;28;20200;-74
2024/03/01 04:31:55;;;;;;;32.83;20.15;;;5.30;99.90;;;;;;5039610;28;20646;-74
2024/03/01 04:34:23;;;;;;;29.63;19.10;;;5.30;99.90;;;;;;5023142;28;20685;-74
2024/03/01 04:36:51;;;;;;;28.13;18.75;;;5.20;99.90;;;;;;5029570;28;20247;-74
2024/03/01 04:39:18;;;;;;;32.85;19.05;;;5.10;99.90;;;;;;5024623;28;20197;-74
2024/03/01 04:41:45;;;;;;;31.27;19.95;;;5.20;99.90;;;;;;5026825;28;20287;-74
2024/03/01 04:44:12;;;;;;;27.60;20.02;;;5.30;99.90;;;;;;5032655;28;20211;-74
2024/03/01 04:46:41;;;;;;;35.08;18.92;;;5.30;99.90;;;;;;5049869;27;20338;-74
2024/03/01 04:49:07;;;;;;;32.60;19.50;;;5.30;99.90;;;;;;5018922;28;20271;-75
2024/03/01 04:51:34;;;;;;;35.00;18.40;;;5.30;99.90;;;;;;5051048;28;20193;-74
2024/03/01 04:54:02;;;;;;;30.48;19.20;;;5.30;99.90;;;;;;5068653;27;20545;-74
2024/03/01 04:56:29;;;;;;;29.80;18.83;;;5.40;99.90;;;;;;5035327;28;20230;-74
2024/03/01 04:58:56;;;;;;;27.52;18.70;;;5.30;99.90;;;;;;5025350;28;20196;-74
2024/03/01 05:01:23;;;;;;;35.88;18.58;;;5.30;99.90;;;;;;5037689;28;20220;-74
2024/03/01 05:03:50;;;;;;;34.95;21.38;;;5.30;99.90;;;;;;5022041;28;20189;-74
2024/03/01 05:06:17;;;;;;;25.38;17.80;;;5.40;99.90;;;;;;5018147;28;20193;-74
2024/03/01 05:08:45;;;;;;;25.88;18.30;;;5.30;99.90;;;;;;5027486;28;20279;-74
2024/03/01 05:11:13;;;;;;;29.02;18.88;;;5.30;99.90;;;;;;5029963;28;20205;-74
2024/03/01 05:13:40;;;;;;;29.67;18.52;;;5.30;99.90;;;;;;5016745;28;20201;-77
2024/03/01 05:16:07;;;;;;;31.25;19.10;;;5.40;99.90;;;;;;5040264;27;20213;-76
2024/03/01 05:18:34;;;;;;;26.88;18.42;;;5.30;99.90;;;;;;5068484;27;20287;-76
2024/03/01 05:21:01;;;;;;;27.90;18.00;;;5.30;99.90;;;;;;5032690;28;20199;-76
2024/03/01 05:23:27;;;;;;;32.75;20.80;;;5.30;99.90;;;;;;5038740;28;20405;-77
2024/03/01 05:25:54;;;;;;;32.33;19.95;;;5.40;99.90;;;;;;5038071;28;20296;-76
2024/03/01 05:28:22;;;;;;;27.67;18.40;;;5.50;99.90;;;;;;5044852;28;20192;-78
2024/03/01 05:30:49;;;;;;;36.05;20.42;;;5.50;99.90;;;;;;5040589;28;20192;-76
2024/03/01 05:33:16;;;;;;;26.98;17.85;;;5.50;99.90;;;;;;5029432;28;20287;-76
2024/03/01 05:35:43;;;;;;;29.85;20.13;;;5.50;99.90;;;;;;5026823;28;20220;-75
2024/03/01 05:38:10;;;;;;;29.80;18.40;;;5.50;99.90;;;;;;5047396;28;20228;-73
2024/03/01 05:40:37;;;;;;;37.30;19.42;;;5.50;99.90;;;;;;5044775;28;20279;-74
2024/03/01 05:43:04;;;;;;;30.88;18.55;;;5.60;99.90;;;;;;5089037;27;20198;-74
2024/03/01 05:45:35;;;;;;;27.33;19.35;;;5.60;99.90;;;;;;5047724;27;20212;-75
2024/03/01 05:48:01;;;;;;;28.88;19.52;;;5.40;99.90;;;;;;5028607;28;20224;-75
2024/03/01 05:50:28;;;;;;;26.80;18.40;;;5.50;99.90;;;;;;5028699;28;20201;-75
2024/03/01 05:52:55;;;;;;;32.55;19.88;;;5.50;99.90;;;;;;5062736;27;20197;-75
2024/03/01 05:55:24;;;;;;;32.92;19.98;;;5.50;99.90;;;;;;5028412;28;20200;-75
2024/03/01 05:57:50;;;;;;;30.98;18.42;;;5.70;99.90;;;;;;5034992;28;20204;-76
2024/03/01 06:00:25;;;;;;;29.13;17.08;;;5.50;99.90;;;;;;5016544;28;20194;-75
2024/03/01 06:02:53;;;;;;;26.75;18.15;;;5.40;99.90;;;;;;5020092;27;20201;-76
2024/03/01 06:05:21;;;;;;;27.08;16.90;;;5.50;99.90;;;;;;5041346;27;20305;-75
2024/03/01 06:07:48;;;;;;;30.38;19.35;;;5.60;99.90;;;;;;5056363;27;20205;-77
2024/03/01 06:10:16;;;;;;;32.97;20.40;;;5.50;99.90;;;;;;5068656;27;20292;-76
2024/03/01 06:12:43;;;;;;;26.77;19.02;;;5.50;99.90;;;;;;5036440;27;20686;-77
2024/03/01 06:15:10;;;;;;;29.67;18.20;;;5.50;99.90;;;;;;5066553;27;20215;-76
2024/03/01 06:17:37;;;;;;;28.38;19.48;;;5.50;99.90;;;;;;5073190;27;20515;-77
2024/03/01 06:20:05;;;;;;;27.63;18.20;;;5.60;99.90;;;;;;5044727;27;20201;-77
2024/03/01 06:22:32;;;;;;;31.23;16.90;;;5.50;99.90;;;;;;5043723;27;20200;-75
2024/03/01 06:24:59;;;;;;;30.52;19.50;;;5.50;99.90;;;;;;5028963;28;20211;-75
2024/03/01 06:27:26;;;;;;;28.33;17.27;;;5.50;99.90;;;;;;5028320;28;20223;-80
2024/03/01 06:29:53;;;;;;;32.67;19.27;;;5.50;99.90;;;;;;5018574;28;20564;-78
2024/03/01 06:32:20;;;;;;;38.20;20.35;;;5.50;99.90;;;;;;5029038;28;20627;-77
2024/03/01 06:34:48;;;;;;;31.55;20.10;;;5.50;99.90;;;;;;5029280;28;20310;-78
2024/03/01 06:37:18;;;;;;;27.88;20.05;;;5.50;99.90;;;;;;5028205;28;20315;-77
2024/03/01 06:39:45;;;;;;;32.88;20.50;;;5.50;99.90;;;;;;5034678;27;20194;-78
2024/03/01 06:42:12;;;;;;;35.92;19.85;;;5.50;99.90;;;;;;5096737;27;20205;-77
2024/03/01 06:44:39;;;;;;;29.80;18.30;;;5.50;99.90;;;;;;5082278;27;20204;-76
2024/03/01 06:47:06;;;;;;;26.92;18.13;;;5.60;99.90;;;;;;5028310;28;20284;-76
2024/03/01 06:49:33;;;;;;;33.50;19.25;;;6.10;99.90;;;;;;5027664;28;20193;-76
2024/03/01 06:52:00;;;;;;;37.72;18.15;;;5.50;99.90;;;;;;5060424;27;20248;-76
2024/03/01 06:54:29;;;;;;;31.63;19.17;;;5.50;99.90;;;;;;5075488;27;20258;-76
2024/03/01 06:56:56;;;;;;;29.20;18.73;;;5.50;99.90;;;;;;5066105;27;20217;-76
2024/03/01 06:59:22;;;;;;;29.85;18.65;;;5.60;99.90;;;;;;5032188;27;20665;-76
2024/03/01 07:01:49;;;;;;;32.05;19.92;;;5.60;99.90;;;;;;5036010;27;20606;-76
2024/03/01 07:04:16;;;;;;;35.70;21.48;;;5.70;99.90;;;;;;5027097;28;20199;-76
2024/03/01 07:06:43;;;;;;;25.02;17.02;;;5.70;99.90;;;;;;5026393;28;20284;-76
2024/03/01 07:09:09;;;;;;;34.20;21.27;;;5.70;99.90;;;;;;5049720;27;20232;-76
2024/03/01 07:11:38;;;;;;;30.05;19.15;;;5.70;99.90;;;;;;5047298;27;20204;-76
2024/03/01 07:14:06;;;;;;;28.17;18.92;;;5.80;99.90;;;;;;5031925;28;20228;-75
2024/03/01 07:16:32;;;;;;;29.58;20.60;;;5.80;99.90;;;;;;5021899;28;20228;-76
2024/03/01 07:18:59;;;;;;;28.60;17.77;;;5.90;99.90;;;;;;5033631;27;20681;-77
2024/03/01 07:21:26;;;;;;;33.92;23.45;;;5.90;99.90;;;;;;5043726;27;20746;-76
2024/03/01 07:23:53;;;;;;;28.67;17.95;;;6.00;99.90;;;;;;5024896;28;20198;-76
2024/03/01 07:26:20;;;;;;;28.20;21.10;;;6.00;99.90;;;;;;5067230;27;20203;-76
2024/03/01 07:28:48;;;;;;;31.63;20.70;;;6.00;99.90;;;;;;5034474;28;20633;-76
2024/03/01 07:31:15;;;;;;;26.75;18.33;;;6.00;99.90;;;;;;5031860;28;20626;-76
2024/03/01 07:33:42;;;;;;;28.60;18.75;;;6.20;99.90;;;;;;5027534;28;20303;-76
2024/03/01 07:36:12;;;;;;;32.47;21.65;;;6.20;99.90;;;;;;5031331;28;20319;-76
2024/03/01 07:38:38;;;;;;;32.10;19.37;;;6.30;99.90;;;;;;5032764;28;20208;-76
2024/03/01 07:41:05;;;;;;;28.57;20.07;;;6.30;99.90;;;;;;5033595;28;20632;-76
2024/03/01 07:43:32;;;;;;;34.70;19.65;;;6.40;99.90;;;;;;5032847;28;20633;-76
2024/03/01 07:46:00;;;;;;;27.47;18.97;;;6.40;99.90;;;;;;5025764;28;20202;-77
2024/03/01 07:48:27;;;;;;;27.92;20.02;;;6.50;99.90;;;;;;5023705;28;20627;-75
2024/03/01 07:50:54;;;;;;;23.67;18.10;;;6.60;99.90;;;;;;5022622;28;20214;-74
2024/03/01 07:53:21;;;;;;;31.48;19.30;;;6.60;99.90;;;;;;5038787;27;20718;-74
2024/03/01 07:55:48;;;;;;;31.73;17.50;;;6.60;99.90;;;;;;5064612;27;20207;-74
2024/03/01 07:58:15;;;;;;;27.33;16.83;;;6.60;99.90;;;;;;5025203;28;20758;-74
2024/03/01 08:00:42;;;;;;;28.57;18.70;;;6.70;99.90;;;;;;5023800;28;20719;-74
2024/03/01 08:03:11;;;;;;;27.97;18.47;;;6.80;99.90;;;;;;5030500;28;20731;-74
2024/03/01 08:05:39;;;;;;;26.60;17.10;;;7.00;99.90;;;;;;5029899;28;20966;-74
2024/03/01 08:08:07;;;;;;;31.30;19.03;;;6.90;99.90;;;;;;5026710;28;20664;-74
2024/03/01 08:10:35;;;;;;;25.67;17.33;;;7.10;99.90;;;;;;5025708;28;21208;-74
2024/03/01 08:13:02;;;;;;;24.43;17.23;;;7.10;99.90;;;;;;5026270;28;20697;-74
2024/03/01 08:15:35;;;;;;;22.43;16.80;;;7.10;99.90;;;;;;5026631;28;20627;-74
2024/03/01 08:18:14;;;;;;;26.20;18.37;;;7.30;99.90;;;;;;5030195;28;21308;-74
2024/03/01 08:20:58;;;;;;;24.07;16.10;;;7.40;99.90;;;;;;5029375;28;20635;-74
2024/03/01 08:23:27;;;;;;;25.57;15.80;;;7.40;99.90;;;;;;5029307;28;20620;-74
2024/03/01 08:25:53;;;;;;;24.13;16.73;;;7.60;99.90;;;;;;5027699;28;20730;-75
2024/03/01 08:28:23;;;;;;;24.50;15.67;;;7.50;99.90;;;;;;5027714;28;20687;-74
2024/03/01 08:30:50;;;;;;;19.67;13.37;;;7.60;99.90;;;;;;5023518;28;20634;-74
2024/03/01 08:33:20;;;;;;;22.33;14.53;;;7.60;99.90;;;;;;5028528;28;20659;-76
2024/03/01 08:35:48;;;;;;;19.77;13.97;;;7.70;99.90;;;;;;5028414;28;20635;-74
2024/03/01 08:38:58;;;;;;;21.87;13.20;;;7.70;99.90;;;;;;5028387;28;21018;-74
2024/03/01 08:41:25;;;;;;;15.10;11.60;;;7.90;99.90;;;;;;5027564;28;20635;-74
2024/03/01 08:43:54;;;;;;;18.80;12.20;;;8.00;99.90;;;;;;5025888;28;20632;-75
2024/03/01 08:46:28;;;;;;;16.40;12.30;;;8.00;99.80;;;;;;5029571;28;20627;-74
2024/03/01 08:48:56;;;;;;;16.27;10.40;;;8.00;99.40;;;;;;5027549;28;20683;-73
2024/03/01 08:51:24;;;;;;;14.03;11.80;;;8.00;99.50;;;;;;5026675;28;20654;-74
2024/03/01 08:54:00;;;;;;;13.30;9.60;;;8.10;98.80;;;;;;5030539;28;20635;-74
2024/03/01 08:56:34;;;;;;;18.20;10.50;;;8.10;99.00;;;;;;5030196;28;20667;-74
2024/03/01 08:59:02;;;;;;;13.83;9.70;;;8.40;99.20;;;;;;5021952;27;20627;-74
2024/03/01 09:01:45;;;;;;;13.20;10.13;;;8.20;98.80;;;;;;5030572;28;20726;-74
2024/03/01 09:04:19;;;;;;;13.27;9.33;;;8.20;98.60;;;;;;5027386;28;20663;-74
2024/03/01 09:06:56;;;;;;;13.67;9.10;;;8.20;98.50;;;;;;5026936;28;20634;-74
2024/03/01 09:09:23;;;;;;;16.13;9.97;;;8.20;98.60;;;;;;5030532;28;20635;-74
2024/03/01 09:11:52;;;;;;;12.20;9.30;;;8.10;98.90;;;;;;5030043;28;20726;-74
2024/03/01 09:14:29;;;;;;;10.60;8.50;;;8.20;98.90;;;;;;5030299;28;21018;-74
2024/03/01 09:16:56;;;;;;;12.27;9.10;;;8.10;99.40;;;;;;5042918;27;21319;-74
2024/03/01 09:19:25;;;;;;;11.40;8.90;;;8.20;99.90;;;;;;5029118;28;20894;-74
2024/03/01 09:21:52;;;;;;;12.90;9.93;;;8.30;99.90;;;;;;5027076;28;20654;-74
2024/03/01 09:24:20;;;;;;;10.93;9.00;;;8.30;99.90;;;;;;5030012;28;20619;-74
2024/03/01 09:26:50;;;;;;;14.03;10.30;;;8.40;99.90;;;;;;5028370;28;20635;-74
2024/03/01 09:29:36;;;;;;;10.57;8.80;;;8.30;99.90;;;;;;5029546;28;20662;-74
2024/03/01 09:32:03;;;;;;;14.03;8.97;;;8.20;99.90;;;;;;5029527;28;20631;-74
2024/03/01 09:34:38;;;;;;;11.73;9.20;;;8.10;99.90;;;;;;5029463;28;20738;-74
2024/03/01 09:37:08;;;;;;;11.03;8.83;;;8.10;99.90;;;;;;5026565;28;20662;-74
2024/03/01 09:39:35;;;;;;;13.67;8.30;;;8.10;99.90;;;;;;5029123;28;20727;-74
2024/03/01 09:42:18;;;;;;;12.03;9.43;;;8.10;99.90;;;;;;5029092;28;20687;-74
2024/03/01 09:44:59;;;;;;;13.40;9.70;;;8.20;99.90;;;;;;5029136;28;21180;-74
2024/03/01 09:47:39;;;;;;;11.30;8.70;;;8.20;99.90;;;;;;5028174;28;20667;-74
2024/03/01 09:50:29;;;;;;;12.97;9.07;;;8.20;99.90;;;;;;5028769;27;21070;-74
2024/03/01 09:53:10;;;;;;;14.23;9.03;;;8.30;99.90;;;;;;5047437;27;21039;-73
2024/03/01 09:55:47;;;;;;;8.33;7.10;;;8.20;99.90;;;;;;5042929;27;21190;-74
2024/03/01 09:58:20;;;;;;;12.67;7.70;;;8.20;99.90;;;;;;5025666;28;21154;-74
2024/03/01 10:01:01;;;;;;;11.40;8.30;;;8.20;99.90;;;;;;5026123;28;20623;-74
2024/03/01 10:03:36;;;;;;;9.93;8.27;;;8.30;99.90;;;;;;5027936;28;21164;-74
2024/03/01 10:06:26;;;;;;;12.37;7.90;;;8.30;99.90;;;;;;5026383;28;20631;-73
2024/03/01 10:09:04;;;;;;;12.10;7.03;;;8.20;99.90;;;;;;5049107;27;21203;-74
2024/03/01 10:11:46;;;;;;;13.40;6.77;;;8.20;99.90;;;;;;5026701;28;20630;-74
2024/03/01 10:14:25;;;;;;;8.17;7.07;;;8.40;99.90;;;;;;5018916;28;20627;-74
2024/03/01 10:17:00;;;;;;;13.00;9.03;;;8.30;99.90;;;;;;5024031;27;20761;-74
2024/03/01 10:19:41;;;;;;;9.67;7.50;;;8.30;99.90;;;;;;5034198;27;20637;-74
2024/03/01 10:22:21;;;;;;;11.07;8.17;;;8.30;99.90;;;;;;5050967;27;21089;-75
2024/03/01 10:25:17;;;;;;;8.00;6.90;;;8.50;99.90;;;;;;5051197;27;20641;-73
2024/03/01 10:27:50;;;;;;;9.60;7.10;;;8.50;99.90;;;;;;5025214;28;20627;-74
2024/03/01 10:30:18;;;;;;;12.47;8.37;;;8.60;99.90;;;;;;5026847;28;20727;-73
2024/03/01 10:33:18;;;;;;;12.93;7.60;;;8.60;99.90;;;;;;5034454;28;20646;-74
2024/03/01 10:35:53;;;;;;;11.63;9.20;;;8.90;99.90;;;;;;5053925;27;20639;-73
2024/03/01 10:38:36;;;;;;;10.67;8.63;;;8.70;99.90;;;;;;5060808;27;21240;-74
2024/03/01 10:41:13;;;;;;;11.30;8.23;;;8.70;99.90;;;;;;5057758;27;20711;-73
2024/03/01 10:43:52;;;;;;;10.30;8.00;;;8.70;99.90;;;;;;5053154;27;20646;-74
2024/03/01 10:46:24;;;;;;;11.77;8.10;;;8.80;99.90;;;;;;5059956;27;20639;-74
2024/03/01 10:49:02;;;;;;;11.33;8.33;;;9.40;99.90;;;;;;5026493;28;21033;-75
2024/03/01 10:51:33;;;;;;;11.90;8.97;;;8.80;99.90;;;;;;5063300;27;20757;-74
2024/03/01 10:54:06;;;;;;;14.27;7.73;;;8.70;99.90;;;;;;5057768;27;20712;-73
2024/03/01 10:56:33;;;;;;;9.50;7.23;;;8.80;99.90;;;;;;5044653;27;20650;-74
2024/03/01 10:59:05;;;;;;;10.10;8.27;;;8.90;99.90;;;;;;5027931;28;21262;-74
2024/03/01 11:01:37;;;;;;;9.73;6.83;;;8.90;99.90;;;;;;5028227;28;20680;-74
2024/03/01 11:04:12;;;;;;;8.90;7.97;;;8.90;99.90;;;;;;5032012;28;20627;-74
2024/03/01 11:06:50;;;;;;;11.07;7.87;;;8.80;99.90;;;;;;5031253;28;21177;-75
2024/03/01 11:09:26;;;;;;;9.90;7.27;;;9.00;99.90;;;;;;5030238;28;20689;-75
2024/03/01 11:12:03;;;;;;;8.80;6.70;;;9.00;99.90;;;;;;5031686;28;20703;-75
2024/03/01 11:14:33;;;;;;;10.10;7.33;;;9.10;99.90;;;;;;5030883;28;20623;-74
2024/03/01 11:17:03;;;;;;;10.77;7.47;;;9.10;99.90;;;;;;5032679;28;20739;-74
2024/03/01 11:19:34;;;;;;;11.40;8.57;;;9.30;99.90;;;;;;5027703;28;20643;-75
2024/03/01 11:22:09;;;;;;;11.60;8.43;;;9.40;99.90;;;;;;5031107;28;20734;-75
2024/03/01 11:24:44;;;;;;;10.77;8.03;;;9.50;99.90;;;;;;5030676;28;20994;-75
2024/03/01 11:27:16;;;;;;;9.50;7.30;;;9.60;99.90;;;;;;5030560;28;20739;-74
2024/03/01 11:29:50;;;;;;;7.83;6.73;;;9.60;99.90;;;;;;5031711;27;20652;-75
2024/03/01 11:32:19;;;;;;;11.77;8.60;;;9.70;99.90;;;;;;5050661;27;20634;-74
2024/03/01 11:34:59;;;;;;;8.27;6.70;;;9.70;99.90;;;;;;5077764;27;20637;-74
2024/03/01 11:37:39;;;;;;;7.70;6.90;;;9.90;99.90;;;;;;5062321;27;20744;-75
2024/03/01 11:40:15;;;;;;;6.90;6.20;;;9.90;99.90;;;;;;5038998;27;20662;-75
2024/03/01 11:43:02;;;;;;;10.03;7.50;;;9.90;99.90;;;;;;5047476;27;20622;-76
2024/03/01 11:45:36;;;;;;;9.17;7.80;;;10.00;99.90;;;;;;5073271;27;20628;-76
2024/03/01 11:48:20;;;;;;;10.40;6.87;;;10.10;99.90;;;;;;5016642;28;20741;-77
2024/03/01 11:50:58;;;;;;;9.03;6.40;;;10.20;99.90;;;;;;5074118;27;20661;-74
2024/03/01 11:53:40;;;;;;;7.27;6.20;;;10.30;99.90;;;;;;5044173;27;20629;-73
2024/03/01 11:56:38;;;;;;;7.47;5.73;;;10.50;99.90;;;;;;5018957;28;20627;-73
2024/03/01 11:59:21;;;;;;;8.43;6.17;;;10.60;99.90;;;;;;5018035;28;20670;-74
2024/03/01 12:01:55;;;;;;;11.53;6.30;;;10.70;99.90;;;;;;5025686;28;21015;-72
2024/03/01 12:04:57;;;;;;;7.03;6.33;;;10.80;99.90;;;;;;5018505;28;20740;-72
2024/03/01 12:07:42;;;;;;;6.90;6.20;;;10.90;99.90;;;;;;5027180;28;20727;-75
2024/03/01 12:10:20;;;;;;;7.00;5.37;;;11.00;99.90;;;;;;5026247;28;20677;-73
2024/03/01 12:12:50;;;;;;;9.23;6.40;;;10.90;99.90;;;;;;5075677;27;20641;-73
2024/03/01 12:15:22;;;;;;;8.37;6.43;;;11.00;99.90;;;;;;5077805;27;20655;-73
2024/03/01 12:18:02;;;;;;;5.97;5.30;;;11.10;99.90;;;;;;5056506;27;20672;-73
2024/03/01 12:20:31;;;;;;;6.80;6.00;;;11.20;99.30;;;;;;5026223;28;21056;-73
2024/03/01 12:23:12;;;;;;;7.17;6.53;;;11.30;99.50;;;;;;5023069;28;20624;-73
2024/03/01 12:25:40;;;;;;;5.77;5.17;;;11.20;99.50;;;;;;5021661;28;20648;-73
2024/03/01 12:28:29;;;;;;;7.07;6.37;;;11.10;99.30;;;;;;5039525;28;20628;-73
2024/03/01 12:31:06;;;;;;;8.77;5.70;;;11.00;98.60;;;;;;5027490;28;20730;-73
2024/03/01 12:33:54;;;;;;;6.40;5.70;;;11.00;99.50;;;;;;5026706;28;21194;-73
2024/03/01 12:36:34;;;;;;;5.17;4.67;;;11.00;99.00;;;;;;5024386;28;20666;-74
2024/03/01 12:39:03;;;;;;;6.97;4.90;;;10.90;98.30;;;;;;5032661;28;20736;-74
2024/03/01 12:41:41;;;;;;;6.90;4.80;;;10.90;98.10;;;;;;5022737;28;20646;-73
2024/03/01 12:44:21;;;;;;;5.00;4.57;;;10.80;98.40;;;;;;5015836;28;20632;-73
2024/03/01 12:47:10;;;;;;;5.23;4.63;;;10.80;98.60;;;;;;5023067;28;21071;-73
2024/03/01 12:49:52;;;;;;;5.67;4.63;;;10.80;99.90;;;;;;5025682;28;20633;-73
2024/03/01 12:52:40;;;;;;;5.87;4.13;;;10.80;98.40;;;;;;5026651;28;20762;-74
2024/03/01 12:55:12;;;;;;;6.00;5.03;;;10.80;98.40;;;;;;5021476;28;20663;-74
2024/03/01 12:57:48;;;;;;;5.67;4.10;;;11.00;99.90;;;;;;5024803;28;21579;-74